COOK1: Arkansas River Nr Coolidge, KS

                                SHEF ID:       COOK1     ARKANSAS R NR COOLIDGE, KS
STATION TYPE:
Regulating: Stage = 8.00, Flow = 2028

PRECIP STAGE STAGE(2) RIV-FLOW WTR-TEMP CONDUCT BAT-LOAD
in ft ft cfs F umho/cm volt
Ccp-Rev Ccp-Rev Ccp-Rev Ccp-Rev Ccp-Rev Ccp-Rev Ccp-Rev
(America/Chicago)
07/27 00:00 0.00 4.63 4.80 400 77.31 3287 12.95
07/27 01:00 0.00 4.66 4.84 408 76.73 3287 12.95
07/27 02:00 0.00 4.63 4.82 400 76.10 3287 12.89
07/27 03:00 0.00 4.65 4.82 405 75.42 3276 12.89
07/27 04:00 0.00 4.65 4.83 405 74.68 3283 12.89
07/27 05:00 0.00 4.66 4.83 408 74.01 3303 12.83
07/27 06:00 0.00 4.67 4.84 411 73.33 3305 12.83
07/27 07:00 0.00 4.67 4.85 411 72.72 3298 12.83
07/27 08:00 0.00 4.67 4.86 411 72.25 3287 12.83
07/27 09:00 0.00 4.68 4.88 413 72.07 3285 12.89
07/27 10:00 0.00 4.72 4.87 424 72.34 3278 13.12
07/27 11:00 0.00 4.72 4.90 424 73.08 3278 13.59
07/27 12:00 0.00 4.71 4.88 422 74.14 3276 13.71
07/27 13:00 0.00 4.73 4.93 427 75.40 3271 13.77
07/27 14:00 0.00 4.71 4.91 422 76.69 3263 13.71
07/27 15:00 0.00 4.74 4.93 430 78.08 3263 13.77
07/27 16:00 0.00 4.74 4.81 430 79.29 3262 13.65
07/27 17:00 0.00 4.73 4.82 427 80.15 3260 13.48
07/27 18:00 0.00 4.69 4.82 416 80.76 3247 13.30
07/27 19:00 0.00 4.70 4.80 419 80.82 3235 13.18
07/27 20:00 0.00 4.68 4.81 413 80.38 3244 13.12
07/27 21:00 0.00 4.68 4.80 413 79.90 3249 13.07
07/27 22:00 0.00 4.66 4.78 408 79.39 3251 13.00
07/27 23:00 ---- ---- ---- ---- ---- ---- ----
Data processed at Sun 28Jul2024 04:30 GMT

Parsing this webpage?

Checkout our new Data API! CWMSDataAPI (CDA)

Timeseries IDs (TSIDs)

TSIDs used from left to right in the data table
COOL.Precip-Inc.Total.1Hour.1Hour.Ccp-Rev
COOL.Stage.Inst.1Hour.0.Ccp-Rev
COOL.Stage-Alt.Inst.1Hour.0.Ccp-Rev
COOL.Flow.Inst.1Hour.0.Ccp-Rev
COOL.Temp-Water.Inst.1Hour.0.Ccp-Rev
COOL.Cond.Inst.1Hour.0.Ccp-Rev
COOL.Volt-Battery Load.Inst.1Hour.0.Ccp-Rev

                            

All information presented herein is the property of the government of the United States of America and may be revised or deleted at any time without prior notice. Dissemination of this information without the expressed written consent of the Public Affairs Office, Tulsa District U.S. Army Corps of Engineers is strictly prohibited. These data are gathered electronically and, as presented, have NOT undergone any form of quality control. These data are NOT guaranteed to be valid or correct.